createdAt,value
2019-03-12T00:02:15.503Z,22.87
2019-03-12T00:04:47.305Z,23.60
2019-03-12T00:07:19.138Z,24.13
2019-03-12T00:09:53.716Z,19.90
2019-03-12T00:12:24.543Z,22.37
2019-03-12T00:14:56.455Z,21.57
2019-03-12T00:17:28.291Z,24.30
2019-03-12T00:20:00.363Z,19.87
2019-03-12T00:22:33.648Z,21.47
2019-03-12T00:25:05.923Z,21.77
2019-03-12T00:27:40.889Z,19.03
2019-03-12T00:30:12.681Z,19.50
2019-03-12T00:32:44.526Z,19.83
2019-03-12T00:35:16.327Z,17.90
2019-03-12T00:37:48.134Z,20.00
2019-03-12T00:40:20.204Z,21.47
2019-03-12T00:42:52.133Z,24.60
2019-03-12T00:45:23.929Z,17.73
2019-03-12T00:47:55.767Z,21.53
2019-03-12T00:50:27.589Z,20.27
2019-03-12T00:52:59.328Z,23.73
2019-03-12T00:55:31.161Z,22.60
2019-03-12T00:58:03.465Z,22.60
2019-03-12T01:00:36.348Z,21.50
2019-03-12T01:03:08.094Z,20.10
2019-03-12T01:05:39.911Z,23.00
2019-03-12T01:08:11.980Z,21.93
2019-03-12T01:10:43.827Z,19.50
2019-03-12T01:13:19.821Z,22.80
2019-03-12T01:15:51.737Z,17.70
2019-03-12T01:18:23.540Z,18.23
2019-03-12T01:20:55.333Z,18.87
2019-03-12T01:23:27.114Z,20.73
2019-03-12T01:26:00.210Z,21.23
2019-03-12T01:28:32.160Z,19.23
2019-03-12T01:31:03.954Z,20.17
2019-03-12T01:33:35.812Z,16.87
2019-03-12T01:36:07.586Z,17.50
2019-03-12T01:38:39.395Z,20.10
2019-03-12T01:41:11.239Z,21.17
2019-03-12T01:43:43.176Z,21.00
2019-03-12T01:46:14.916Z,20.27
2019-03-12T01:48:46.742Z,19.60
2019-03-12T01:51:18.523Z,16.60
2019-03-12T01:53:50.321Z,18.53
2019-03-12T01:56:22.103Z,17.87
2019-03-12T01:58:54.249Z,15.13
2019-03-12T02:01:26.044Z,14.40
2019-03-12T02:03:57.806Z,15.87
2019-03-12T02:06:29.610Z,16.63
2019-03-12T02:09:01.353Z,15.50
2019-03-12T02:11:34.780Z,13.40
2019-03-12T02:14:28.230Z,16.27
2019-03-12T02:17:00.124Z,14.43
2019-03-12T02:19:31.933Z,18.27
2019-03-12T02:22:04.074Z,15.67
2019-03-12T02:24:35.832Z,11.90
2019-03-12T02:27:07.693Z,15.87
2019-03-12T02:29:39.466Z,13.43
2019-03-12T02:32:11.345Z,17.43
2019-03-12T02:34:43.109Z,18.60
2019-03-12T02:37:14.947Z,16.90
2019-03-12T02:39:46.737Z,18.37
2019-03-12T02:42:18.736Z,16.40
2019-03-12T02:44:50.558Z,17.10
2019-03-12T02:47:23.467Z,17.67
2019-03-12T02:49:55.274Z,15.40
2019-03-12T02:52:27.038Z,18.63
2019-03-12T02:54:58.830Z,15.07
2019-03-12T02:57:30.708Z,16.93
2019-03-12T03:00:02.819Z,21.53
2019-03-12T03:02:35.246Z,21.00
2019-03-12T03:05:07.539Z,17.13
2019-03-12T03:08:05.728Z,23.87
2019-03-12T03:10:37.648Z,19.73
2019-03-12T03:13:09.415Z,18.37
2019-03-12T03:15:43.236Z,20.60
2019-03-12T03:18:15.076Z,20.30
2019-03-12T03:20:46.831Z,19.57
2019-03-12T03:23:18.600Z,19.47
2019-03-12T03:25:50.365Z,20.57
2019-03-12T03:28:22.182Z,20.13
2019-03-12T03:30:53.968Z,17.10
2019-03-12T03:33:25.834Z,18.60
2019-03-12T03:35:57.618Z,22.20
2019-03-12T03:38:30.613Z,23.27
2019-03-12T03:41:02.697Z,20.60
2019-03-12T03:43:34.842Z,24.30
2019-03-12T03:46:06.842Z,20.63
2019-03-12T03:48:38.644Z,23.23
2019-03-12T03:51:10.472Z,22.60
2019-03-12T03:53:42.243Z,20.67
2019-03-12T03:56:14.281Z,20.43
2019-03-12T03:58:46.145Z,19.90
2019-03-12T04:01:18.297Z,16.60
2019-03-12T04:03:50.203Z,16.57
2019-03-12T04:06:22.273Z,15.57
2019-03-12T04:08:54.115Z,19.37
2019-03-12T04:11:25.883Z,18.40
2019-03-12T04:13:57.690Z,16.93
2019-03-12T04:16:29.689Z,17.43
2019-03-12T04:19:01.497Z,18.13
2019-03-12T04:21:33.315Z,17.87
2019-03-12T04:24:05.123Z,22.83
2019-03-12T04:26:36.914Z,17.57
2019-03-12T04:29:08.767Z,18.83
2019-03-12T04:31:40.762Z,18.10
2019-03-12T04:34:35.895Z,20.30
2019-03-12T04:37:07.690Z,20.00
2019-03-12T04:39:39.535Z,19.93
2019-03-12T04:42:11.283Z,16.83
2019-03-12T04:44:43.366Z,20.93
2019-03-12T04:47:15.397Z,20.30
2019-03-12T04:49:47.216Z,21.53
2019-03-12T04:52:18.971Z,23.37
2019-03-12T04:54:50.798Z,18.30
2019-03-12T04:57:22.556Z,19.13
2019-03-12T04:59:54.315Z,17.37
2019-03-12T05:02:26.394Z,17.67
2019-03-12T05:04:58.211Z,15.87
2019-03-12T05:07:30.028Z,18.97
2019-03-12T05:10:01.810Z,20.03
2019-03-12T05:12:33.698Z,18.17
2019-03-12T05:15:07.153Z,24.53
2019-03-12T05:17:39.327Z,22.83
2019-03-12T05:20:13.807Z,26.70
2019-03-12T05:22:45.588Z,19.90
2019-03-12T05:25:18.601Z,22.33
2019-03-12T05:27:50.419Z,23.17
2019-03-12T05:30:22.234Z,21.70
2019-03-12T05:32:54.324Z,20.20
2019-03-12T05:35:26.150Z,18.40
2019-03-12T05:37:57.958Z,18.47
2019-03-12T05:40:29.760Z,19.10
2019-03-12T05:43:01.532Z,21.30
2019-03-12T05:45:33.672Z,19.77
2019-03-12T05:48:05.793Z,22.97
2019-03-12T05:50:37.558Z,21.27
2019-03-12T05:53:14.957Z,20.40
2019-03-12T05:55:46.751Z,20.33
2019-03-12T05:58:18.551Z,13.80
2019-03-12T06:00:50.333Z,19.17
2019-03-12T06:03:22.438Z,20.40
2019-03-12T06:05:54.232Z,21.13
2019-03-12T06:08:26.057Z,20.73
2019-03-12T06:10:57.893Z,24.93
2019-03-12T06:13:29.726Z,18.43
2019-03-12T06:16:01.578Z,17.20
2019-03-12T06:18:33.597Z,15.63
2019-03-12T06:21:05.448Z,18.63
2019-03-12T06:23:37.297Z,18.13
2019-03-12T06:26:09.213Z,21.00
2019-03-12T06:28:41.006Z,17.37
2019-03-12T06:31:35.639Z,19.67
2019-03-12T06:34:26.436Z,17.47
2019-03-12T06:37:06.450Z,20.10
2019-03-12T06:39:56.119Z,15.63
2019-03-12T06:43:13.657Z,17.13
2019-03-12T06:46:08.437Z,18.67
2019-03-12T06:49:17.556Z,19.97
2019-03-12T06:52:06.365Z,22.40
2019-03-12T06:54:48.572Z,20.67
2019-03-12T06:57:39.223Z,15.10
2019-03-12T07:00:35.382Z,17.90
2019-03-12T07:03:26.010Z,16.47
2019-03-12T07:06:15.666Z,20.17
2019-03-12T07:08:54.805Z,11.60
2019-03-12T07:11:39.195Z,18.43
2019-03-12T07:14:38.874Z,15.57
2019-03-12T07:17:18.310Z,12.60
2019-03-12T07:20:03.223Z,15.23
2019-03-12T07:22:51.043Z,12.70
2019-03-12T07:25:37.175Z,12.07
2019-03-12T07:28:15.899Z,15.87
2019-03-12T07:31:00.887Z,11.70
2019-03-12T07:33:47.144Z,12.53
2019-03-12T07:36:46.694Z,11.50
2019-03-12T07:39:34.728Z,11.93
2019-03-12T07:42:34.591Z,14.00
2019-03-12T07:45:25.982Z,12.33
2019-03-12T07:48:15.387Z,11.57
2019-03-12T07:51:10.237Z,14.50
2019-03-12T07:54:04.130Z,10.50
2019-03-12T07:56:53.559Z,7.50
2019-03-12T07:59:36.982Z,10.37
2019-03-12T08:02:36.886Z,12.73
2019-03-12T08:05:28.479Z,12.37
2019-03-12T08:08:07.525Z,12.83
2019-03-12T08:11:01.255Z,10.30
2019-03-12T08:13:50.752Z,12.03
2019-03-12T08:16:50.424Z,14.63
2019-03-12T08:19:45.608Z,10.50
2019-03-12T08:22:35.748Z,14.43
2019-03-12T08:25:26.050Z,12.20
2019-03-12T08:28:22.994Z,17.13
2019-03-12T08:31:14.064Z,20.50
2019-03-12T08:34:22.934Z,18.40
2019-03-12T08:37:08.239Z,13.60
2019-03-12T08:39:59.544Z,9.10
2019-03-12T08:42:54.429Z,9.57
2019-03-12T08:45:56.544Z,12.93
2019-03-12T08:48:40.980Z,17.40
2019-03-12T08:51:30.553Z,9.57
2019-03-12T08:54:12.344Z,8.90
2019-03-12T08:57:07.950Z,6.60
2019-03-12T08:59:55.586Z,6.03
2019-03-12T09:03:04.366Z,5.20
2019-03-12T09:05:45.800Z,7.67
2019-03-12T09:08:34.172Z,4.40
2019-03-12T09:11:15.446Z,6.07
2019-03-12T09:14:12.306Z,5.00
2019-03-12T09:16:58.795Z,5.50
2019-03-12T09:19:57.945Z,4.93
2019-03-12T09:22:54.512Z,6.23
2019-03-12T09:25:45.232Z,4.83
2019-03-12T09:28:38.639Z,5.97
2019-03-12T09:31:28.011Z,3.13
2019-03-12T09:34:24.711Z,4.37
2019-03-12T09:37:13.906Z,2.53
2019-03-12T09:40:03.495Z,4.00
2019-03-12T09:42:57.525Z,3.37
2019-03-12T09:45:57.235Z,6.57
2019-03-12T09:49:06.130Z,2.93
2019-03-12T09:51:42.238Z,3.63
2019-03-12T09:54:40.680Z,5.33
2019-03-12T09:57:34.126Z,6.57
2019-03-12T10:00:26.972Z,4.67
2019-03-12T10:03:19.638Z,4.87
2019-03-12T10:06:08.845Z,4.80
2019-03-12T10:08:58.339Z,6.10
2019-03-12T10:11:46.126Z,3.80
2019-03-12T10:14:40.078Z,4.43
2019-03-12T10:17:23.022Z,2.27
2019-03-12T10:20:22.872Z,3.17
2019-03-12T10:23:01.670Z,4.53
2019-03-12T10:25:55.247Z,2.60
2019-03-12T10:28:46.865Z,3.07
2019-03-12T10:31:56.177Z,2.93
2019-03-12T10:34:46.861Z,4.37
2019-03-12T10:37:32.591Z,4.30
2019-03-12T10:40:37.167Z,3.17
2019-03-12T10:43:32.055Z,3.30
2019-03-12T10:46:14.772Z,4.03
2019-03-12T10:48:46.886Z,2.97
2019-03-12T10:51:18.871Z,2.40
2019-03-12T10:53:50.741Z,3.37
2019-03-12T10:56:22.551Z,3.07
2019-03-12T10:58:54.449Z,4.03
2019-03-12T11:01:27.397Z,5.93
2019-03-12T11:03:59.302Z,3.00
2019-03-12T11:06:31.131Z,5.27
2019-03-12T11:09:04.671Z,6.50
2019-03-12T11:11:37.216Z,4.97
2019-03-12T11:14:09.091Z,4.57
2019-03-12T11:16:41.202Z,3.37
2019-03-12T11:19:13.073Z,5.63
2019-03-12T11:21:46.169Z,4.67
2019-03-12T11:24:17.944Z,6.37
2019-03-12T11:26:49.900Z,6.17
2019-03-12T11:29:21.732Z,4.50
2019-03-12T11:31:54.040Z,6.77
2019-03-12T11:34:25.820Z,7.60
2019-03-12T11:36:57.617Z,8.30
2019-03-12T11:39:29.448Z,7.93
2019-03-12T11:42:01.377Z,7.80
2019-03-12T11:44:33.245Z,6.00
2019-03-12T11:47:05.363Z,11.43
2019-03-12T11:49:37.133Z,9.63
2019-03-12T11:52:09.005Z,8.77
2019-03-12T11:54:40.853Z,11.57
2019-03-12T11:57:12.628Z,7.00
2019-03-12T11:59:44.536Z,9.70
2019-03-12T12:02:16.572Z,8.30
2019-03-12T12:04:48.394Z,8.73
2019-03-12T12:07:20.500Z,10.70
2019-03-12T12:09:52.656Z,5.80
2019-03-12T12:12:26.176Z,10.20
2019-03-12T12:14:58.116Z,7.73
2019-03-12T12:17:30.310Z,5.33
2019-03-12T12:20:02.108Z,6.43
2019-03-12T12:22:34.098Z,7.50
2019-03-12T12:25:06.543Z,7.70
2019-03-12T12:27:38.373Z,6.57
2019-03-12T12:30:13.825Z,6.13
2019-03-12T12:32:45.944Z,7.93
2019-03-12T12:35:17.756Z,7.03
2019-03-12T12:37:49.580Z,9.20
2019-03-12T12:40:21.605Z,5.70
2019-03-12T12:42:53.517Z,6.73
2019-03-12T12:45:26.670Z,4.27
2019-03-12T12:47:58.864Z,6.33
2019-03-12T12:50:30.824Z,6.00
2019-03-12T12:53:02.643Z,9.50
2019-03-12T12:55:34.490Z,4.77
2019-03-12T12:58:06.401Z,4.77
2019-03-12T13:00:38.730Z,5.80
2019-03-12T13:03:10.938Z,5.10
2019-03-12T13:05:42.817Z,5.60
2019-03-12T13:08:14.848Z,5.17
2019-03-12T13:10:46.724Z,4.70
2019-03-12T13:13:18.644Z,5.47
2019-03-12T13:15:51.645Z,6.33
2019-03-12T13:18:24.038Z,4.43
2019-03-12T13:20:56.146Z,7.63
2019-03-12T13:23:28.167Z,5.90
2019-03-12T13:25:59.981Z,4.27
2019-03-12T13:28:31.781Z,6.10
2019-03-12T13:31:03.706Z,6.73
2019-03-12T13:33:35.962Z,6.00
2019-03-12T13:36:14.562Z,5.20
2019-03-12T13:38:47.907Z,3.03
2019-03-12T13:41:20.030Z,5.53
2019-03-12T13:43:51.869Z,3.67
2019-03-12T13:46:23.953Z,3.42
2019-03-12T13:48:56.452Z,3.50
2019-03-12T13:51:28.450Z,5.47
2019-03-12T13:54:00.970Z,4.55
2019-03-12T13:56:32.949Z,4.55
2019-03-12T13:59:04.892Z,3.98
2019-03-12T14:01:36.982Z,5.25
2019-03-12T14:04:11.054Z,4.55
2019-03-12T14:06:42.738Z,3.72
2019-03-12T14:09:14.799Z,5.95
2019-03-12T14:11:46.801Z,5.58
2019-03-12T14:14:18.862Z,4.97
2019-03-12T14:16:50.737Z,4.80
2019-03-12T14:19:24.089Z,5.15
2019-03-12T14:21:56.950Z,11.43
2019-03-12T14:24:30.467Z,18.50
2019-03-12T14:27:02.458Z,14.75
2019-03-12T14:29:34.585Z,16.95
2019-03-12T14:32:06.520Z,13.22
2019-03-12T14:34:38.491Z,15.63
2019-03-12T14:37:10.535Z,17.45
2019-03-12T14:39:42.453Z,10.63
2019-03-12T14:42:14.376Z,11.75
2019-03-12T14:44:46.730Z,16.70
2019-03-12T14:47:19.793Z,12.05
2019-03-12T14:49:51.963Z,10.85
2019-03-12T14:52:29.061Z,13.28
2019-03-12T14:55:00.935Z,15.00
2019-03-12T14:57:32.856Z,16.23
2019-03-12T15:00:11.168Z,12.80
2019-03-12T15:02:43.333Z,15.90
2019-03-12T15:05:15.293Z,15.25
2019-03-12T15:07:47.656Z,13.48
2019-03-12T15:10:19.902Z,12.98
2019-03-12T15:12:51.779Z,12.37
2019-03-12T15:15:23.697Z,12.07
2019-03-12T15:17:55.618Z,14.47
2019-03-12T15:20:27.789Z,12.28
2019-03-12T15:22:59.617Z,8.03
2019-03-12T15:25:33.371Z,16.17
2019-03-12T15:28:06.913Z,14.40
2019-03-12T15:30:39.873Z,12.75
2019-03-12T15:33:12.684Z,11.10
2019-03-12T15:35:44.696Z,13.35
2019-03-12T15:38:17.101Z,14.40
2019-03-12T15:40:49.049Z,12.45
2019-03-12T15:43:21.102Z,10.45
2019-03-12T15:45:52.975Z,11.00
2019-03-12T15:48:25.391Z,10.77
2019-03-12T15:50:57.641Z,10.90
2019-03-12T15:53:29.482Z,10.57
2019-03-12T15:56:01.449Z,10.17
2019-03-12T15:58:33.464Z,8.50
2019-03-12T16:01:06.022Z,12.33
2019-03-12T16:03:41.590Z,11.47
2019-03-12T16:06:12.698Z,10.63
2019-03-12T16:08:45.536Z,12.17
2019-03-12T16:11:18.242Z,9.00
2019-03-12T16:13:50.704Z,8.37
2019-03-12T16:16:23.312Z,12.30
2019-03-12T16:18:55.407Z,10.97
2019-03-12T16:21:28.133Z,8.30
2019-03-12T16:24:02.014Z,6.90
2019-03-12T16:26:34.191Z,10.07
2019-03-12T16:29:07.042Z,9.43
2019-03-12T16:31:39.299Z,6.70
2019-03-12T16:34:11.315Z,9.57
2019-03-12T16:36:44.127Z,11.80
2019-03-12T16:39:17.055Z,9.93
2019-03-12T16:41:49.536Z,9.60
2019-03-12T16:44:21.519Z,9.70
2019-03-12T16:46:53.633Z,8.43
2019-03-12T16:49:26.044Z,12.73
2019-03-12T16:51:58.111Z,10.50
2019-03-12T16:54:30.097Z,10.07
2019-03-12T16:57:02.019Z,10.73
2019-03-12T16:59:34.154Z,10.43
2019-03-12T17:02:05.992Z,13.27
2019-03-12T17:04:37.850Z,14.87
2019-03-12T17:07:09.752Z,14.37
2019-03-12T17:09:41.640Z,15.90
2019-03-12T17:12:13.540Z,15.17
2019-03-12T17:14:45.570Z,16.63
2019-03-12T17:17:17.397Z,17.90
2019-03-12T17:19:49.436Z,20.70
2019-03-12T17:22:21.445Z,20.40
2019-03-12T17:24:53.362Z,19.50
2019-03-12T17:27:25.256Z,23.17
2019-03-12T17:29:57.078Z,25.63
2019-03-12T17:32:28.940Z,24.90
2019-03-12T17:35:01.029Z,22.87
2019-03-12T17:37:33.090Z,20.37
2019-03-12T17:40:05.229Z,23.50
2019-03-12T17:42:37.283Z,26.70
2019-03-12T17:45:10.800Z,21.60
2019-03-12T17:47:43.929Z,27.23
2019-03-12T17:50:17.333Z,32.17
2019-03-12T17:52:49.566Z,28.13
2019-03-12T17:55:22.110Z,26.50
2019-03-12T17:57:53.988Z,32.23
2019-03-12T18:00:28.724Z,33.97
2019-03-12T18:03:00.941Z,31.23
2019-03-12T18:05:33.111Z,47.30
2019-03-12T18:08:05.467Z,38.27
2019-03-12T18:10:37.721Z,39.77
2019-03-12T18:13:09.964Z,31.30
2019-03-12T18:15:42.828Z,35.90
2019-03-12T18:18:14.739Z,33.63
2019-03-12T18:20:46.730Z,41.37
2019-03-12T18:23:19.057Z,44.20
2019-03-12T18:25:51.870Z,71.33
2019-03-12T18:28:24.046Z,55.93
2019-03-12T18:30:56.582Z,48.20
2019-03-12T18:33:28.656Z,48.13
2019-03-12T18:36:00.913Z,31.27
2019-03-12T18:38:33.024Z,30.50
2019-03-12T18:41:04.970Z,25.87
2019-03-12T18:43:37.882Z,22.00
2019-03-12T18:46:09.888Z,22.93
2019-03-12T18:48:44.529Z,28.50
2019-03-12T18:51:15.922Z,35.07
2019-03-12T18:53:48.118Z,33.13
2019-03-12T18:56:19.985Z,31.90
2019-03-12T18:58:52.110Z,22.57
2019-03-12T19:01:24.172Z,25.10
2019-03-12T19:03:56.481Z,22.73
2019-03-12T19:06:28.696Z,25.13
2019-03-12T19:09:00.860Z,24.67
2019-03-12T19:11:37.606Z,26.43
2019-03-12T19:14:08.305Z,30.27
2019-03-12T19:16:40.449Z,35.40
2019-03-12T19:19:12.815Z,35.27
2019-03-12T19:21:44.843Z,37.37
2019-03-12T19:24:17.156Z,31.77
2019-03-12T19:26:49.277Z,31.17
2019-03-12T19:29:21.250Z,32.03
2019-03-12T19:32:10.303Z,30.43
2019-03-12T19:34:42.397Z,28.57
2019-03-12T19:37:14.536Z,30.13
2019-03-12T19:39:46.687Z,26.83
2019-03-12T19:42:19.031Z,33.00
2019-03-12T19:44:51.056Z,28.80
2019-03-12T19:47:23.334Z,29.23
2019-03-12T19:49:55.213Z,31.67
2019-03-12T19:52:27.433Z,29.17
2019-03-12T19:54:59.331Z,26.83
2019-03-12T19:57:31.505Z,32.40
2019-03-12T20:00:04.175Z,27.20
2019-03-12T20:02:37.431Z,34.47
2019-03-12T20:05:11.412Z,32.00
2019-03-12T20:07:43.727Z,41.10
2019-03-12T20:11:16.828Z,43.83
2019-03-12T20:14:59.530Z,53.63
2019-03-12T20:18:22.927Z,44.30
2019-03-12T20:22:09.506Z,51.07
2019-03-12T20:25:37.961Z,36.17
2019-03-12T20:28:58.829Z,38.60
2019-03-12T20:32:35.450Z,35.63
2019-03-12T20:36:30.794Z,30.07
2019-03-12T20:40:00.167Z,35.97
2019-03-12T20:43:55.893Z,28.83
2019-03-12T20:47:46.080Z,29.57
2019-03-12T20:51:41.450Z,33.77
2019-03-12T20:55:19.721Z,36.97
2019-03-12T20:58:52.175Z,34.30
2019-03-12T21:02:45.119Z,37.53
2019-03-12T21:06:11.053Z,38.10
2019-03-12T21:09:54.808Z,40.97
2019-03-12T21:13:30.286Z,37.50
2019-03-12T21:17:05.641Z,39.87
2019-03-12T21:20:41.102Z,45.87
2019-03-12T21:23:51.349Z,47.10
2019-03-12T21:27:35.094Z,44.90
2019-03-12T21:30:04.380Z,43.33
2019-03-12T21:32:36.774Z,54.30
2019-03-12T21:35:08.974Z,47.23
2019-03-12T21:37:41.019Z,46.87
2019-03-12T21:40:13.200Z,43.93
2019-03-12T21:42:45.385Z,45.17
2019-03-12T21:45:17.489Z,44.60
2019-03-12T21:47:50.897Z,50.10
2019-03-12T21:50:24.353Z,50.23
2019-03-12T21:52:56.820Z,45.40
2019-03-12T21:55:28.753Z,53.97
2019-03-12T21:58:00.891Z,56.20
2019-03-12T22:00:32.858Z,51.27
2019-03-12T22:03:04.991Z,53.73
2019-03-12T22:05:36.836Z,51.67
2019-03-12T22:08:08.750Z,44.57
2019-03-12T22:10:41.051Z,42.00
2019-03-12T22:13:13.234Z,43.13
2019-03-12T22:15:45.114Z,49.97
2019-03-12T22:18:17.346Z,49.87
2019-03-12T22:20:51.408Z,43.43
2019-03-12T22:23:25.830Z,46.17
2019-03-12T22:25:57.657Z,44.57
2019-03-12T22:28:29.860Z,43.67
2019-03-12T22:31:01.710Z,42.73
2019-03-12T22:33:33.690Z,43.67
2019-03-12T22:36:05.972Z,41.40
2019-03-12T22:38:37.893Z,38.23
2019-03-12T22:41:09.972Z,35.73
2019-03-12T22:43:41.984Z,40.63
2019-03-12T22:46:14.096Z,40.03
2019-03-12T22:48:45.954Z,38.97
2019-03-12T22:51:18.006Z,39.53
2019-03-12T22:53:50.116Z,31.80
2019-03-12T22:56:22.298Z,36.50
2019-03-12T22:58:54.359Z,34.43
2019-03-12T23:01:43.755Z,41.67
2019-03-12T23:04:33.542Z,31.30
2019-03-12T23:07:23.265Z,33.37
2019-03-12T23:09:56.773Z,31.53
2019-03-12T23:12:30.450Z,36.03
2019-03-12T23:15:02.940Z,32.20
2019-03-12T23:17:36.436Z,40.07
2019-03-12T23:20:10.526Z,34.97
2019-03-12T23:22:43.969Z,35.47
2019-03-12T23:25:16.231Z,33.73
2019-03-12T23:27:49.752Z,33.13
2019-03-12T23:30:22.027Z,34.17
2019-03-12T23:32:54.519Z,31.13
2019-03-12T23:35:26.357Z,32.87
2019-03-12T23:37:58.244Z,32.43
2019-03-12T23:40:30.160Z,30.63
2019-03-12T23:43:02.128Z,34.27
2019-03-12T23:45:33.987Z,29.40
2019-03-12T23:48:05.876Z,31.43
2019-03-12T23:50:37.929Z,34.87
2019-03-12T23:53:10.105Z,33.77
2019-03-12T23:55:42.279Z,35.47
2019-03-12T23:58:14.285Z,29.87
